Table Rock, Nebraska
Current Conditions -  °F | °C
As of 5:53 AM on Friday 19 Dec 2014 (Local Time) from KFNB Reporting Station
Overcast Overcast  
Wind Chill: 21°   Ceiling: 1300
Heat Index: 29°   Visibility: 10mi
Dew Point: 26°   Wind: 8mph
Humidity: 89%   Direction: 210°SSW
Pressure: 30.24"   Gusts: NA
Location:  40.18°N, 96.1°W
Report Text: KFNB 191153Z AUTO 21007KT 10SM OVC013 M02/M03 A3024 RMK AO2 SLP250 70005 T10171033 11011 21017 55003
Loading
Personal Weather Stations






























Interactive Weather Map New forecast layout! Learn more

10-Day Weather Forecast

Advertisements
Track Severe Weather on mobile